Time;durP1;ratioP1;P1;durP2;ratioP2;P2;SDS_P1;SDS_P2;PMS_P1;PMS_P2;Temp;Humidity;BMP_temperature;BMP_pressure;BME280_temperature;BME280_humidity;BME280_pressure;Samples;Min_cycle;Max_cycle;Signal;HPM_P1;HPM_P2
2022/11/10 00:00:50;;;;;;;70.38;50.55;;;17.30;74.90;;;;;;4938549;28;96595;-50
2022/11/10 00:03:15;;;;;;;72.63;50.85;;;17.30;74.90;;;;;;4950687;28;95178;-50
2022/11/10 00:05:41;;;;;;;72.57;50.88;;;17.30;75.00;;;;;;4947557;28;101327;-51
2022/11/10 00:08:10;;;;;;;72.32;50.67;;;17.30;75.00;;;;;;4944940;28;94995;-52
2022/11/10 00:10:56;;;;;;;71.22;50.75;;;17.30;75.00;;;;;;4943278;28;95520;-51
2022/11/10 00:13:34;;;;;;;70.95;50.78;;;17.20;75.00;;;;;;4944811;28;95259;-50
2022/11/10 00:19:06;;;;;;;72.38;50.85;;;17.20;75.00;;;;;;4904117;28;96279;-51
2022/11/10 00:21:32;;;;;;;70.20;50.83;;;17.20;75.00;;;;;;4906487;28;96305;-52
2022/11/10 00:23:57;;;;;;;72.93;50.75;;;17.20;75.00;;;;;;4925079;28;94996;-52
2022/11/10 00:26:23;;;;;;;70.43;50.53;;;17.20;75.10;;;;;;4942859;28;95099;-51
2022/11/10 00:28:48;;;;;;;71.72;50.67;;;17.20;75.10;;;;;;4940336;28;95765;-52
2022/11/10 00:31:14;;;;;;;71.35;50.95;;;17.20;75.10;;;;;;4938705;28;96435;-51
2022/11/10 00:33:42;;;;;;;71.43;50.40;;;17.10;75.20;;;;;;4947374;28;96410;-51
2022/11/10 00:36:08;;;;;;;70.97;51.10;;;17.10;75.20;;;;;;4941617;28;95392;-52
2022/11/10 00:38:34;;;;;;;70.10;50.42;;;17.10;75.20;;;;;;4948145;28;96133;-51
2022/11/10 00:41:00;;;;;;;71.97;50.67;;;17.20;75.30;;;;;;4948012;28;98131;-52
2022/11/10 00:43:27;;;;;;;71.93;51.22;;;17.10;75.10;;;;;;4945829;28;101078;-51
2022/11/10 00:45:52;;;;;;;73.20;50.97;;;17.10;75.00;;;;;;4947169;28;96611;-51
2022/11/10 00:48:18;;;;;;;70.28;50.53;;;17.10;75.30;;;;;;4944256;28;95003;-50
2022/11/10 00:50:44;;;;;;;70.70;50.83;;;17.10;75.10;;;;;;4951950;28;95985;-51
2022/11/10 00:53:10;;;;;;;75.38;50.85;;;17.10;75.10;;;;;;4948412;28;95072;-48
2022/11/10 00:55:39;;;;;;;71.43;50.72;;;17.10;75.20;;;;;;4946149;28;100249;-51
2022/11/10 00:58:05;;;;;;;71.55;51.08;;;17.10;75.10;;;;;;4947660;28;95281;-51
2022/11/10 01:00:31;;;;;;;71.20;50.55;;;17.10;75.20;;;;;;4947267;28;95126;-50
2022/11/10 01:02:57;;;;;;;71.53;50.92;;;17.00;75.20;;;;;;4942044;28;96329;-52
2022/11/10 01:05:22;;;;;;;70.60;50.72;;;17.00;75.40;;;;;;4945997;28;100247;-50
2022/11/10 01:07:48;;;;;;;70.10;50.53;;;17.00;75.20;;;;;;4942737;28;101018;-53
2022/11/10 01:10:14;;;;;;;70.22;50.35;;;17.10;75.20;;;;;;4948049;28;96785;-51
2022/11/10 01:12:39;;;;;;;71.43;50.80;;;17.00;75.20;;;;;;4950573;28;95314;-54
2022/11/10 01:15:06;;;;;;;70.15;50.92;;;17.00;75.20;;;;;;4944612;28;98045;-52
2022/11/10 01:17:32;;;;;;;72.10;50.95;;;17.00;75.40;;;;;;4945161;28;95077;-51
2022/11/10 01:19:57;;;;;;;70.10;50.80;;;17.00;75.20;;;;;;4944504;28;95179;-51
2022/11/10 01:22:23;;;;;;;73.70;51.10;;;17.00;75.20;;;;;;4940270;28;95309;-52
2022/11/10 01:24:49;;;;;;;69.90;50.20;;;17.00;75.30;;;;;;4946621;28;93950;-53
2022/11/10 01:27:14;;;;;;;69.75;50.20;;;17.00;75.40;;;;;;4947430;28;95539;-51
2022/11/10 01:29:40;;;;;;;70.20;50.33;;;17.00;75.20;;;;;;4959306;28;94832;-52
2022/11/10 01:32:06;;;;;;;70.13;50.65;;;17.00;75.20;;;;;;4935982;28;97547;-52
2022/11/10 01:34:31;;;;;;;69.60;50.42;;;17.00;75.30;;;;;;4942966;28;98410;-53
2022/11/10 01:36:57;;;;;;;70.18;50.38;;;16.90;75.30;;;;;;4950949;28;95011;-53
2022/11/10 01:39:23;;;;;;;70.68;50.55;;;17.00;75.50;;;;;;4947209;28;95841;-52
2022/11/10 01:41:48;;;;;;;70.45;50.22;;;17.00;75.20;;;;;;4940767;28;95196;-50
2022/11/10 01:44:20;;;;;;;71.00;51.17;;;16.90;75.30;;;;;;4947187;28;98267;-52
2022/11/10 01:46:46;;;;;;;71.20;50.10;;;16.90;75.40;;;;;;4945924;28;96025;-51
2022/11/10 01:49:16;;;;;;;71.68;50.65;;;16.90;75.20;;;;;;4952529;28;94494;-52
2022/11/10 01:51:47;;;;;;;70.47;50.38;;;16.90;75.30;;;;;;4946055;28;99625;-49
2022/11/10 01:54:22;;;;;;;71.68;50.85;;;16.90;75.30;;;;;;4942954;28;95098;-52
2022/11/10 01:56:52;;;;;;;71.88;50.90;;;16.90;75.30;;;;;;4949788;28;96795;-52
2022/11/10 01:59:24;;;;;;;71.38;50.47;;;16.90;75.20;;;;;;4940010;28;96111;-50
2022/11/10 02:01:53;;;;;;;70.22;50.33;;;16.90;75.30;;;;;;4947271;28;96930;-51
2022/11/10 02:04:19;;;;;;;71.93;50.55;;;16.90;75.20;;;;;;4945048;28;98782;-51
2022/11/10 02:06:48;;;;;;;69.72;50.65;;;16.90;75.30;;;;;;4949778;28;95374;-51
2022/11/10 02:09:15;;;;;;;72.75;50.83;;;16.90;75.40;;;;;;4944204;28;96920;-51
2022/11/10 02:11:42;;;;;;;71.53;50.90;;;16.80;75.40;;;;;;4940463;28;96857;-48
2022/11/10 02:14:09;;;;;;;69.82;50.03;;;16.80;75.40;;;;;;4940124;28;94572;-51
2022/11/10 02:16:36;;;;;;;69.75;50.10;;;16.80;75.50;;;;;;4946784;28;95654;-49
2022/11/10 02:19:22;;;;;;;71.30;50.83;;;16.80;75.40;;;;;;4943540;28;95517;-51
2022/11/10 02:21:47;;;;;;;70.80;50.65;;;16.80;75.60;;;;;;4948348;28;97214;-51
2022/11/10 02:24:13;;;;;;;69.85;51.00;;;16.80;75.60;;;;;;4950902;28;94905;-51
2022/11/10 02:26:48;;;;;;;70.78;50.72;;;16.80;75.50;;;;;;4946414;28;95453;-50
2022/11/10 02:29:14;;;;;;;70.93;50.28;;;16.80;75.50;;;;;;4951230;28;97055;-51
2022/11/10 02:31:40;;;;;;;71.20;50.67;;;16.80;75.50;;;;;;4951362;28;100664;-52
2022/11/10 02:34:06;;;;;;;72.68;50.30;;;16.80;75.50;;;;;;4950952;28;97115;-51
2022/11/10 02:36:32;;;;;;;69.47;50.35;;;16.70;75.40;;;;;;4952094;28;98483;-53
2022/11/10 02:38:57;;;;;;;69.85;50.67;;;16.70;75.50;;;;;;4950765;28;95570;-52
2022/11/10 02:41:23;;;;;;;70.07;50.63;;;16.70;75.60;;;;;;4952266;28;95279;-49
2022/11/10 02:43:50;;;;;;;70.65;50.10;;;16.70;75.50;;;;;;4952219;28;95710;-53
2022/11/10 02:46:15;;;;;;;70.70;50.45;;;16.70;75.60;;;;;;4949446;28;96822;-53
2022/11/10 02:48:41;;;;;;;71.78;50.22;;;16.70;75.40;;;;;;4942349;28;96372;-52
2022/11/10 02:51:07;;;;;;;71.25;50.13;;;16.70;75.50;;;;;;4946618;28;97927;-50
2022/11/10 02:53:32;;;;;;;70.57;50.50;;;16.70;75.60;;;;;;4949057;28;95001;-49
2022/11/10 02:55:58;;;;;;;68.88;49.92;;;16.70;75.50;;;;;;4952048;28;96449;-51
2022/11/10 02:58:24;;;;;;;70.75;50.05;;;16.70;75.60;;;;;;4943216;28;95761;-53
2022/11/10 03:00:49;;;;;;;74.03;50.65;;;16.70;75.50;;;;;;4949902;28;95219;-51
2022/11/10 03:03:15;;;;;;;69.25;50.85;;;16.70;75.50;;;;;;4949918;28;99266;-47
2022/11/10 03:05:40;;;;;;;69.65;50.35;;;16.70;75.40;;;;;;4948552;28;96109;-53
2022/11/10 03:08:06;;;;;;;71.45;49.85;;;16.70;75.50;;;;;;4946976;28;97356;-51
2022/11/10 03:10:32;;;;;;;70.53;50.67;;;16.60;75.50;;;;;;4938495;28;95663;-49
2022/11/10 03:13:00;;;;;;;69.47;50.15;;;16.60;75.60;;;;;;4954638;28;95244;-51
2022/11/10 03:15:26;;;;;;;69.57;50.38;;;16.60;75.70;;;;;;4947173;28;95128;-52
2022/11/10 03:17:52;;;;;;;69.85;50.13;;;16.60;75.70;;;;;;4945285;28;97411;-53
2022/11/10 03:20:18;;;;;;;69.57;50.08;;;16.60;75.80;;;;;;4948807;28;94722;-52
2022/11/10 03:22:45;;;;;;;69.78;50.28;;;16.60;75.70;;;;;;4951952;28;95150;-50
2022/11/10 03:25:11;;;;;;;69.65;50.45;;;16.60;75.60;;;;;;4943393;28;95215;-51
2022/11/10 03:27:36;;;;;;;70.68;50.38;;;16.60;75.60;;;;;;4938968;28;96877;-53
2022/11/10 03:30:04;;;;;;;69.10;50.35;;;16.60;75.70;;;;;;4951161;28;95871;-48
2022/11/10 03:32:30;;;;;;;70.45;50.30;;;16.60;75.80;;;;;;4952271;28;95143;-50
2022/11/10 03:34:56;;;;;;;69.40;49.95;;;16.50;75.60;;;;;;4948172;28;96675;-52
2022/11/10 03:37:21;;;;;;;70.07;49.75;;;16.50;75.60;;;;;;4937993;28;96616;-51
2022/11/10 03:39:47;;;;;;;70.97;50.00;;;16.50;75.60;;;;;;4945690;28;97670;-51
2022/11/10 03:42:13;;;;;;;71.82;50.58;;;16.50;75.70;;;;;;4946346;28;97922;-48
2022/11/10 03:44:38;;;;;;;71.28;50.60;;;16.50;75.60;;;;;;4949549;28;95017;-53
2022/11/10 03:47:04;;;;;;;69.95;50.15;;;16.50;75.60;;;;;;4948576;28;95758;-48
2022/11/10 03:49:30;;;;;;;71.03;49.97;;;16.50;75.70;;;;;;4942941;28;96830;-48
2022/11/10 03:51:56;;;;;;;69.55;49.85;;;16.50;75.80;;;;;;4952480;28;94401;-49
2022/11/10 03:54:22;;;;;;;70.28;50.60;;;16.50;75.80;;;;;;4946023;28;99294;-53
2022/11/10 03:56:47;;;;;;;71.03;50.30;;;16.50;75.70;;;;;;4954871;28;94721;-51
2022/11/10 03:59:13;;;;;;;72.20;50.33;;;16.50;75.60;;;;;;4953421;28;96251;-48
2022/11/10 04:01:39;;;;;;;70.75;50.17;;;16.50;75.80;;;;;;4949145;28;95323;-50
2022/11/10 04:08:57;;;;;;;70.43;51.08;;;16.50;75.60;;;;;;4946880;28;94890;-47
2022/11/10 04:09:34;;;;;;;71.07;50.20;;;16.40;75.70;;;;;;4951558;28;95402;-51
2022/11/10 04:17:30;;;;;;;69.63;50.15;;;16.40;75.80;;;;;;4953758;28;94597;-48
2022/11/10 04:19:55;;;;;;;70.70;50.55;;;16.40;75.90;;;;;;4943530;28;96444;-52
2022/11/10 04:23:25;;;;;;;70.65;50.05;;;16.40;75.80;;;;;;4947774;28;97908;-47
2022/11/10 04:25:07;;;;;;;70.00;50.67;;;16.40;75.80;;;;;;4948032;28;96145;-47
2022/11/10 04:27:32;;;;;;;70.72;49.97;;;16.40;75.70;;;;;;4950326;28;94983;-53
2022/11/10 04:29:58;;;;;;;72.90;50.50;;;16.40;75.80;;;;;;4944879;28;96015;-52
2022/11/10 04:32:24;;;;;;;69.53;50.45;;;16.40;75.70;;;;;;4945006;28;98441;-48
2022/11/10 04:34:49;;;;;;;69.45;50.10;;;16.40;75.80;;;;;;4949624;28;95199;-50
2022/11/10 04:37:15;;;;;;;68.63;50.22;;;16.40;75.60;;;;;;4950689;28;95464;-47
2022/11/10 04:39:41;;;;;;;71.13;50.28;;;16.30;75.60;;;;;;4950408;28;95133;-47
2022/11/10 04:42:06;;;;;;;69.97;50.42;;;16.30;75.80;;;;;;4942820;28;94177;-52
2022/11/10 04:44:32;;;;;;;70.63;50.25;;;16.30;75.60;;;;;;4942412;28;95708;-51
2022/11/10 04:46:57;;;;;;;70.90;50.35;;;16.40;75.80;;;;;;4944843;28;96748;-52
2022/11/10 04:49:23;;;;;;;68.55;49.85;;;16.30;75.70;;;;;;4937312;28;98950;-52
2022/11/10 04:51:49;;;;;;;70.50;50.22;;;16.30;75.80;;;;;;4947126;28;95706;-52
2022/11/10 04:54:14;;;;;;;70.50;50.35;;;16.30;75.90;;;;;;4950179;28;96850;-53
2022/11/10 04:56:40;;;;;;;71.05;50.50;;;16.30;75.90;;;;;;4943121;28;95236;-50
2022/11/10 04:59:05;;;;;;;71.10;50.00;;;16.30;75.90;;;;;;4946253;28;95424;-48
2022/11/10 05:01:31;;;;;;;69.78;49.78;;;16.30;75.70;;;;;;4941330;28;97162;-52
2022/11/10 05:03:57;;;;;;;70.13;50.33;;;16.30;75.80;;;;;;4937532;28;97110;-50
2022/11/10 05:06:23;;;;;;;70.57;50.63;;;16.30;75.80;;;;;;4940662;28;95989;-50
2022/11/10 05:08:48;;;;;;;69.25;50.22;;;16.30;75.90;;;;;;4943257;28;97648;-51
2022/11/10 05:11:15;;;;;;;70.55;50.40;;;16.30;75.90;;;;;;4949386;28;95328;-54
2022/11/10 05:13:41;;;;;;;70.97;50.47;;;16.20;75.80;;;;;;4942036;28;96542;-49
2022/11/10 05:16:07;;;;;;;71.45;50.97;;;16.20;75.90;;;;;;4940588;28;96932;-48
2022/11/10 05:18:33;;;;;;;69.53;50.20;;;16.20;75.70;;;;;;4947440;28;96097;-50
2022/11/10 05:20:59;;;;;;;69.20;50.10;;;16.20;75.70;;;;;;4951624;28;96506;-52
2022/11/10 05:23:37;;;;;;;72.22;50.28;;;16.20;75.90;;;;;;4943776;28;95678;-49
2022/11/10 05:26:09;;;;;;;70.25;50.28;;;16.20;75.80;;;;;;4946108;28;98456;-54
2022/11/10 05:28:35;;;;;;;68.93;49.95;;;16.20;75.80;;;;;;4944020;28;95857;-48
2022/11/10 05:31:01;;;;;;;70.38;50.45;;;16.20;75.90;;;;;;4940763;28;94055;-51
2022/11/10 05:33:26;;;;;;;69.55;50.22;;;16.20;75.80;;;;;;4943438;28;95328;-48
2022/11/10 05:35:52;;;;;;;69.28;50.05;;;16.20;75.80;;;;;;4938299;28;97241;-48
2022/11/10 05:38:17;;;;;;;70.60;50.25;;;16.20;75.70;;;;;;4941068;28;96745;-49
2022/11/10 05:40:43;;;;;;;70.13;50.30;;;16.20;75.80;;;;;;4944197;28;98064;-51
2022/11/10 05:43:10;;;;;;;69.43;50.33;;;16.20;75.80;;;;;;4947523;28;95820;-49
2022/11/10 05:45:35;;;;;;;70.07;50.50;;;16.20;76.60;;;;;;4946176;28;96781;-51
2022/11/10 05:48:01;;;;;;;71.03;50.13;;;16.20;75.80;;;;;;4939231;28;95083;-49
2022/11/10 05:50:27;;;;;;;68.80;50.17;;;16.20;75.90;;;;;;4950197;28;94974;-48
2022/11/10 05:52:54;;;;;;;69.05;50.08;;;16.20;75.70;;;;;;4940101;28;100262;-49
2022/11/10 05:55:22;;;;;;;69.07;50.15;;;16.20;75.90;;;;;;4938876;28;94571;-49
2022/11/10 05:57:49;;;;;;;69.13;49.78;;;16.20;75.80;;;;;;4939530;28;95256;-52
2022/11/10 06:00:20;;;;;;;70.55;50.03;;;16.20;75.80;;;;;;4944668;28;95527;-53
2022/11/10 06:02:54;;;;;;;71.88;50.40;;;16.20;75.80;;;;;;4948532;28;98174;-49
2022/11/10 06:05:20;;;;;;;70.30;50.28;;;16.20;75.90;;;;;;4946168;28;96394;-47
2022/11/10 06:07:45;;;;;;;71.05;50.40;;;16.20;75.90;;;;;;4945879;28;95365;-52
2022/11/10 06:10:11;;;;;;;69.25;50.22;;;16.10;76.00;;;;;;4951103;28;94990;-51
2022/11/10 06:12:37;;;;;;;70.13;50.03;;;16.10;76.00;;;;;;4944575;28;96070;-49
2022/11/10 06:15:04;;;;;;;69.80;50.40;;;16.10;76.00;;;;;;4949359;28;95570;-55
2022/11/10 06:17:30;;;;;;;71.28;50.25;;;16.10;75.90;;;;;;4951581;28;95069;-51
2022/11/10 06:19:55;;;;;;;69.88;50.13;;;16.10;75.80;;;;;;4946414;28;94028;-49
2022/11/10 06:22:21;;;;;;;69.82;50.08;;;16.10;76.00;;;;;;4953429;28;95867;-51
2022/11/10 06:24:47;;;;;;;73.03;50.50;;;16.10;75.90;;;;;;4952329;28;94828;-50
2022/11/10 06:27:12;;;;;;;71.30;50.47;;;16.10;76.10;;;;;;4943404;28;96065;-51
2022/11/10 06:29:38;;;;;;;70.65;50.20;;;16.10;75.90;;;;;;4952870;28;95127;-50
2022/11/10 06:32:03;;;;;;;72.95;50.90;;;16.10;75.90;;;;;;4942251;28;96341;-50
2022/11/10 06:34:29;;;;;;;69.32;50.20;;;16.00;75.80;;;;;;4938935;28;96032;-50
2022/11/10 06:36:55;;;;;;;70.57;50.20;;;16.10;76.20;;;;;;4943991;28;95479;-49
2022/11/10 06:39:20;;;;;;;68.90;50.00;;;16.00;76.10;;;;;;4949986;28;95108;-51
2022/11/10 06:41:46;;;;;;;69.90;50.30;;;16.00;76.00;;;;;;4944454;28;95048;-49
2022/11/10 06:44:11;;;;;;;71.50;50.20;;;16.00;76.00;;;;;;4936575;28;95179;-51
2022/11/10 06:46:37;;;;;;;69.38;50.13;;;16.00;76.50;;;;;;4942632;28;95298;-48
2022/11/10 06:49:03;;;;;;;71.82;50.30;;;16.00;76.20;;;;;;4951786;28;95474;-49
2022/11/10 06:51:29;;;;;;;71.10;50.30;;;16.10;76.00;;;;;;4952159;28;95811;-48
2022/11/10 06:53:54;;;;;;;69.82;50.20;;;16.10;75.90;;;;;;4948375;28;94745;-48
2022/11/10 06:56:20;;;;;;;70.05;49.90;;;16.00;76.10;;;;;;4952567;28;95315;-50
2022/11/10 06:58:45;;;;;;;69.75;50.40;;;16.00;76.00;;;;;;4946559;28;94898;-47
2022/11/10 07:01:11;;;;;;;70.78;50.63;;;16.00;76.00;;;;;;4942812;28;97499;-48
2022/11/10 07:03:37;;;;;;;71.40;50.60;;;16.00;76.00;;;;;;4920138;28;100287;-50
2022/11/10 07:06:03;;;;;;;72.47;50.60;;;16.10;76.00;;;;;;4935720;28;95183;-47
2022/11/10 07:08:28;;;;;;;71.88;52.35;;;16.10;76.30;;;;;;4933055;28;95665;-53
2022/11/10 07:10:55;;;;;;;72.00;50.40;;;16.30;76.10;;;;;;4937992;28;96593;-53
2022/11/10 07:13:21;;;;;;;72.13;50.30;;;16.40;76.00;;;;;;4937110;28;96391;-48
2022/11/10 07:15:47;;;;;;;71.07;50.47;;;16.60;75.80;;;;;;4932565;28;97155;-54
2022/11/10 07:18:13;;;;;;;70.05;50.55;;;16.70;75.70;;;;;;4934337;28;98026;-53
2022/11/10 07:20:39;;;;;;;73.15;50.33;;;16.70;75.10;;;;;;4936345;28;96326;-53
2022/11/10 07:23:06;;;;;;;73.45;50.83;;;16.60;74.90;;;;;;4944605;28;96485;-52
2022/11/10 07:25:34;;;;;;;73.78;51.42;;;16.50;74.90;;;;;;4946603;28;97093;-54
2022/11/10 07:28:02;;;;;;;71.32;50.47;;;16.50;75.30;;;;;;4949177;28;98997;-52
2022/11/10 07:30:29;;;;;;;71.82;50.38;;;16.50;75.20;;;;;;4940108;28;95221;-53
2022/11/10 07:33:13;;;;;;;72.18;50.78;;;16.50;75.30;;;;;;4938219;28;99638;-51
2022/11/10 07:35:38;;;;;;;70.32;50.67;;;16.40;75.20;;;;;;4944853;28;96513;-49
2022/11/10 07:38:07;;;;;;;76.43;50.85;;;16.50;75.60;;;;;;4944558;28;95125;-51
2022/11/10 07:40:33;;;;;;;71.40;50.65;;;16.70;75.40;;;;;;4940459;28;96156;-48
2022/11/10 07:42:59;;;;;;;72.72;50.95;;;16.80;75.30;;;;;;4942376;28;96310;-47
2022/11/10 07:45:25;;;;;;;72.70;50.92;;;16.80;75.20;;;;;;4942755;28;96817;-47
2022/11/10 07:47:51;;;;;;;76.72;51.17;;;16.90;75.20;;;;;;4949504;28;95937;-51
2022/11/10 07:50:17;;;;;;;72.72;50.70;;;16.90;75.20;;;;;;4942809;28;96158;-48
2022/11/10 07:52:43;;;;;;;70.22;50.25;;;17.00;75.30;;;;;;4943766;28;94825;-51
2022/11/10 07:55:08;;;;;;;73.55;51.28;;;17.00;75.20;;;;;;4942198;28;94993;-49
2022/11/10 07:57:34;;;;;;;70.70;50.45;;;17.00;75.30;;;;;;4950918;28;94761;-51
2022/11/10 08:00:00;;;;;;;71.40;50.90;;;17.00;75.30;;;;;;4934845;28;97290;-50
2022/11/10 08:02:26;;;;;;;70.32;50.75;;;17.00;75.20;;;;;;4939621;28;95616;-50
2022/11/10 08:04:51;;;;;;;75.15;51.50;;;17.00;75.20;;;;;;4940481;28;96131;-48
2022/11/10 08:07:17;;;;;;;71.70;50.72;;;17.00;75.20;;;;;;4942319;28;96385;-50
2022/11/10 08:09:43;;;;;;;71.47;50.10;;;17.00;75.40;;;;;;4943393;28;95119;-53
2022/11/10 08:12:09;;;;;;;73.93;51.10;;;17.10;75.00;;;;;;4941341;28;96461;-53
2022/11/10 08:14:34;;;;;;;72.35;50.97;;;17.10;75.30;;;;;;4947803;28;97723;-51
2022/11/10 08:17:00;;;;;;;72.95;51.50;;;17.10;75.10;;;;;;4947080;28;96046;-54
2022/11/10 08:19:26;;;;;;;71.43;51.28;;;17.00;74.90;;;;;;4933079;28;96234;-53
2022/11/10 08:21:52;;;;;;;71.18;50.85;;;17.00;75.10;;;;;;4948212;28;95016;-53
2022/11/10 08:24:17;;;;;;;72.35;51.63;;;16.90;75.00;;;;;;4943824;28;95382;-50
2022/11/10 08:26:43;;;;;;;75.30;50.92;;;16.90;75.20;;;;;;4939841;28;95215;-51
2022/11/10 08:29:09;;;;;;;74.43;52.22;;;17.00;75.40;;;;;;4937827;28;96911;-57
2022/11/10 08:31:37;;;;;;;75.47;51.85;;;17.00;75.40;;;;;;4949226;28;97038;-55
2022/11/10 08:34:03;;;;;;;75.03;51.72;;;17.00;74.80;;;;;;4942296;28;95970;-57
2022/11/10 08:36:28;;;;;;;73.97;51.97;;;17.00;74.90;;;;;;4946845;28;95340;-59
2022/11/10 08:38:54;;;;;;;77.22;51.58;;;17.00;74.90;;;;;;4954028;28;95373;-57
2022/11/10 08:41:19;;;;;;;75.18;52.22;;;17.00;74.90;;;;;;4950619;28;95304;-57
2022/11/10 08:43:46;;;;;;;77.40;52.08;;;16.90;74.90;;;;;;4937098;28;100148;-55
2022/11/10 08:46:12;;;;;;;74.45;51.55;;;16.90;75.10;;;;;;4941613;28;94867;-55
2022/11/10 08:48:38;;;;;;;75.47;51.97;;;16.90;75.80;;;;;;4945542;28;97955;-56
2022/11/10 08:51:03;;;;;;;75.32;51.90;;;16.90;75.10;;;;;;4950684;28;96060;-57
2022/11/10 08:53:29;;;;;;;78.22;51.75;;;16.90;74.90;;;;;;4949578;28;95961;-57
2022/11/10 08:55:58;;;;;;;74.65;52.58;;;16.90;74.90;;;;;;4946571;28;95486;-56
2022/11/10 08:58:23;;;;;;;74.85;51.63;;;16.90;75.10;;;;;;4947207;28;95262;-56
2022/11/10 09:00:50;;;;;;;74.10;51.08;;;16.90;74.80;;;;;;4936636;28;95583;-56
2022/11/10 09:03:19;;;;;;;75.22;51.50;;;16.90;74.80;;;;;;4942369;28;98666;-56
2022/11/10 09:05:46;;;;;;;78.68;52.35;;;16.90;74.70;;;;;;4943392;28;95518;-57
2022/11/10 09:08:12;;;;;;;74.82;51.45;;;16.80;74.80;;;;;;4949821;28;95426;-57
2022/11/10 09:10:43;;;;;;;73.28;51.35;;;16.80;74.70;;;;;;4943658;28;95688;-54
2022/11/10 09:13:10;;;;;;;74.47;51.38;;;16.80;74.70;;;;;;4942798;28;95318;-57
2022/11/10 09:15:37;;;;;;;76.32;52.45;;;16.80;74.60;;;;;;4936915;28;95214;-57
2022/11/10 09:18:05;;;;;;;71.57;51.78;;;16.80;74.50;;;;;;4944280;28;96520;-57
2022/11/10 09:20:32;;;;;;;73.50;51.60;;;16.80;74.50;;;;;;4941435;28;96493;-59
2022/11/10 09:23:05;;;;;;;74.55;52.10;;;16.80;74.50;;;;;;4936135;28;95071;-57
2022/11/10 09:25:31;;;;;;;75.28;51.58;;;16.80;74.30;;;;;;4944613;28;94764;-57
2022/11/10 09:27:57;;;;;;;74.63;52.03;;;16.80;74.40;;;;;;4945182;28;96032;-58
2022/11/10 09:30:24;;;;;;;74.13;51.28;;;16.80;74.20;;;;;;4946802;28;95399;-57
2022/11/10 09:32:54;;;;;;;74.35;52.20;;;16.80;74.30;;;;;;4948813;28;98623;-56
2022/11/10 09:35:20;;;;;;;74.82;51.60;;;16.80;74.20;;;;;;4953099;28;94703;-57
2022/11/10 09:37:45;;;;;;;74.80;51.40;;;16.90;74.20;;;;;;4954064;28;95305;-56
2022/11/10 09:40:34;;;;;;;73.32;51.88;;;16.90;74.20;;;;;;4943991;28;96298;-57
2022/11/10 09:43:02;;;;;;;74.50;51.80;;;16.90;74.20;;;;;;4941578;28;96852;-58
2022/11/10 09:45:36;;;;;;;73.15;51.60;;;16.90;74.20;;;;;;4940767;28;98206;-57
2022/11/10 09:48:25;;;;;;;74.90;51.78;;;16.90;74.00;;;;;;4937877;28;95964;-57
2022/11/10 09:50:58;;;;;;;73.43;52.22;;;16.90;74.00;;;;;;4943196;28;95585;-55
2022/11/10 09:53:33;;;;;;;74.22;51.67;;;16.90;73.80;;;;;;4938730;28;96973;-55
2022/11/10 09:56:02;;;;;;;74.60;51.17;;;16.90;73.90;;;;;;4949780;28;96366;-56
2022/11/10 09:58:37;;;;;;;74.18;51.60;;;16.90;73.80;;;;;;4942670;28;96356;-57
2022/11/10 10:01:11;;;;;;;73.88;51.50;;;16.90;73.70;;;;;;4938735;28;98672;-57
2022/11/10 10:03:45;;;;;;;74.28;51.35;;;17.00;73.70;;;;;;4944212;28;98474;-57
2022/11/10 10:06:15;;;;;;;73.97;52.03;;;17.00;73.60;;;;;;4948733;28;98434;-58
2022/11/10 10:08:59;;;;;;;73.47;51.58;;;17.00;73.40;;;;;;4937853;28;101322;-56
2022/11/10 10:11:49;;;;;;;74.50;51.78;;;17.00;73.40;;;;;;4945999;28;96081;-57
2022/11/10 10:14:39;;;;;;;72.40;51.13;;;17.00;73.40;;;;;;4939198;28;95712;-56
2022/11/10 10:17:13;;;;;;;76.07;51.77;;;17.00;73.30;;;;;;4931620;28;97348;-53
2022/11/10 10:20:02;;;;;;;76.65;51.63;;;17.10;73.60;;;;;;4952999;28;95073;-55
2022/11/10 10:22:55;;;;;;;77.03;51.47;;;17.20;73.80;;;;;;4932961;28;96818;-56
2022/11/10 10:25:24;;;;;;;74.97;52.03;;;17.30;73.40;;;;;;4939668;28;96579;-55
2022/11/10 10:28:02;;;;;;;75.32;52.22;;;17.30;73.50;;;;;;4941580;28;95336;-55
2022/11/10 10:30:28;;;;;;;75.32;51.55;;;17.30;73.80;;;;;;4941422;28;96807;-56
2022/11/10 10:33:01;;;;;;;77.00;51.88;;;17.40;74.10;;;;;;4950451;28;95140;-56
2022/11/10 10:35:28;;;;;;;76.30;51.80;;;17.40;74.00;;;;;;4949037;28;99054;-53
2022/11/10 10:37:56;;;;;;;75.10;51.70;;;17.40;74.20;;;;;;4936305;28;97408;-56
2022/11/10 10:40:23;;;;;;;74.80;52.00;;;17.50;74.10;;;;;;4933373;28;96027;-54
2022/11/10 10:42:49;;;;;;;74.70;52.00;;;17.60;74.20;;;;;;4934793;28;96216;-56
2022/11/10 10:45:22;;;;;;;73.72;51.90;;;17.60;74.30;;;;;;4937537;28;95276;-54
2022/11/10 10:47:50;;;;;;;75.07;51.78;;;17.60;74.20;;;;;;4944324;28;95135;-55
2022/11/10 10:50:34;;;;;;;74.80;51.63;;;17.70;73.80;;;;;;4943978;28;96311;-54
2022/11/10 10:53:18;;;;;;;74.18;51.72;;;17.70;73.30;;;;;;4946547;28;95080;-55
2022/11/10 10:56:03;;;;;;;74.13;51.70;;;17.70;72.70;;;;;;4949801;28;98545;-54
2022/11/10 10:58:30;;;;;;;77.13;52.13;;;17.70;72.50;;;;;;4949293;28;95302;-55
2022/11/10 11:01:03;;;;;;;74.03;51.70;;;17.70;72.20;;;;;;4950558;28;96350;-55
2022/11/10 11:03:44;;;;;;;79.47;52.15;;;17.80;71.90;;;;;;4944306;28;96727;-56
2022/11/10 11:06:15;;;;;;;75.22;52.20;;;17.80;71.80;;;;;;4941474;28;97179;-56
2022/11/10 11:09:05;;;;;;;76.53;51.92;;;17.80;71.50;;;;;;4944477;28;95261;-51
2022/11/10 11:11:34;;;;;;;76.88;51.78;;;17.80;71.60;;;;;;4940745;28;96345;-53
2022/11/10 11:14:23;;;;;;;74.97;52.25;;;17.90;71.70;;;;;;4936583;28;97989;-51
2022/11/10 11:16:52;;;;;;;76.40;52.53;;;18.00;72.00;;;;;;4937642;28;97400;-53
2022/11/10 11:19:20;;;;;;;74.50;51.88;;;18.00;72.00;;;;;;4949409;28;94680;-56
2022/11/10 11:22:13;;;;;;;76.72;52.17;;;18.00;72.20;;;;;;4942770;28;95042;-54
2022/11/10 11:24:39;;;;;;;76.57;52.55;;;18.00;72.00;;;;;;4941956;28;100298;-55
2022/11/10 11:27:07;;;;;;;77.25;52.47;;;18.00;71.40;;;;;;4948228;28;96040;-55
2022/11/10 11:29:44;;;;;;;75.70;52.03;;;18.00;71.20;;;;;;4947133;28;96217;-56
2022/11/10 11:32:48;;;;;;;76.30;52.03;;;18.00;71.00;;;;;;4940379;28;95457;-54
2022/11/10 11:35:30;;;;;;;74.57;51.75;;;18.00;71.20;;;;;;4939372;28;95215;-53
2022/11/10 11:38:14;;;;;;;73.72;52.28;;;18.10;71.40;;;;;;4941338;28;96880;-55
2022/11/10 11:41:00;;;;;;;74.82;51.90;;;18.10;71.70;;;;;;4946780;28;95196;-59
2022/11/10 11:43:38;;;;;;;75.35;51.83;;;18.20;71.90;;;;;;4940895;28;96527;-55
2022/11/10 11:46:25;;;;;;;75.22;51.97;;;18.20;72.10;;;;;;4943122;28;96752;-58
2022/11/10 11:49:33;;;;;;;76.47;51.92;;;18.20;72.20;;;;;;4942835;28;95203;-58
2022/11/10 11:51:59;;;;;;;78.85;52.15;;;18.30;72.30;;;;;;4937261;28;94877;-58
2022/11/10 11:54:25;;;;;;;76.35;52.25;;;18.30;72.50;;;;;;4943918;28;96419;-62
2022/11/10 11:56:51;;;;;;;75.22;52.28;;;18.30;72.60;;;;;;4941615;28;95016;-53
2022/11/10 11:59:43;;;;;;;75.15;51.75;;;18.40;72.80;;;;;;4939817;28;95681;-57
2022/11/10 12:02:18;;;;;;;;;;;18.40;72.90;;;;;;4925944;28;94826;-56
2022/11/10 12:05:25;;;;;;;74.43;52.03;;;18.40;72.90;;;;;;4947259;28;96189;-57
2022/11/10 12:08:03;;;;;;;73.95;52.03;;;18.40;73.00;;;;;;4926369;28;96411;-58
2022/11/10 12:10:38;;;;;;;76.10;51.92;;;18.40;73.00;;;;;;4936453;28;95216;-55
2022/11/10 12:13:11;;;;;;;75.28;51.95;;;18.40;72.90;;;;;;4949594;28;94195;-58
2022/11/10 12:16:01;;;;;;;75.53;52.33;;;18.40;72.90;;;;;;4935115;28;99681;-60
2022/11/10 12:18:36;;;;;;;75.18;51.92;;;18.50;73.10;;;;;;4940332;28;96391;-55
2022/11/10 12:21:22;;;;;;;76.18;52.15;;;18.50;73.10;;;;;;4932691;28;100535;-59
2022/11/10 12:24:28;;;;;;;74.07;51.92;;;18.50;73.20;;;;;;4946648;28;95141;-55
2022/11/10 12:27:19;;;;;;;76.55;52.38;;;18.60;73.40;;;;;;4943464;28;95512;-57
2022/11/10 12:29:52;;;;;;;76.10;51.88;;;18.60;73.60;;;;;;4940476;28;95391;-58
2022/11/10 12:32:36;;;;;;;78.45;52.08;;;18.60;73.50;;;;;;4940981;28;98492;-57
2022/11/10 12:35:13;;;;;;;77.07;52.33;;;18.60;73.20;;;;;;4934183;28;96101;-57
2022/11/10 12:37:52;;;;;;;77.60;52.40;;;18.60;73.30;;;;;;4937782;28;96409;-56
2022/11/10 12:40:40;;;;;;;75.55;52.28;;;18.60;73.40;;;;;;4940693;28;96381;-58
2022/11/10 12:43:14;;;;;;;75.22;52.33;;;18.70;73.50;;;;;;4937177;28;95210;-56
2022/11/10 12:45:55;;;;;;;74.57;51.78;;;18.70;73.50;;;;;;4938976;28;95416;-53
2022/11/10 12:48:22;;;;;;;75.33;52.00;;;18.70;73.70;;;;;;4945139;28;96015;-54